Time;durP1;ratioP1;P1;durP2;ratioP2;P2;SDS_P1;SDS_P2;PMS_P1;PMS_P2;Temp;Humidity;BMP_temperature;BMP_pressure;BME280_temperature;BME280_humidity;BME280_pressure;Samples;Min_cycle;Max_cycle;Signal;HPM_P1;HPM_P2
2022/01/28 00:02:12;;;;;;;58.35;29.25;;;;;;;-0.37;100.00;100030.72;6323945;28;20554;-73
2022/01/28 00:05:18;;;;;;;57.92;27.13;;;;;;;-0.41;100.00;100030.78;6308006;28;20044;-72
2022/01/28 00:08:18;;;;;;;56.65;27.40;;;;;;;-0.49;100.00;100026.66;6323667;28;20044;-73
2022/01/28 00:11:19;;;;;;;57.33;27.00;;;;;;;-0.42;100.00;100038.50;6323507;28;20408;-72
2022/01/28 00:14:30;;;;;;;57.30;27.02;;;;;;;-0.47;100.00;100040.31;6305774;28;20506;-73
2022/01/28 00:36:25;;;;;;;54.70;24.98;;;;;;;-0.52;100.00;100035.22;6307616;28;20089;-72
2022/01/28 00:40:49;;;;;;;60.17;26.05;;;;;;;-0.52;100.00;99999.34;6322841;28;20044;-72
2022/01/28 00:43:50;;;;;;;63.65;27.33;;;;;;;-0.51;100.00;99987.41;6304756;28;20125;-72
2022/01/28 00:46:51;;;;;;;55.17;26.38;;;;;;;-0.70;100.00;99987.69;6288071;28;20109;-73
2022/01/28 00:49:51;;;;;;;54.90;23.20;;;;;;;-0.58;100.00;99970.41;6322748;28;20403;-72
2022/01/28 00:52:52;;;;;;;63.42;27.60;;;;;;;-0.66;100.00;99998.72;6304542;28;20078;-73
2022/01/28 00:55:54;;;;;;;51.42;23.98;;;;;;;-0.66;100.00;99986.78;6322595;28;20044;-73
2022/01/28 00:58:55;;;;;;;62.38;24.48;;;;;;;-0.58;100.00;100007.13;6304545;28;20134;-73
2022/01/28 01:01:55;;;;;;;60.75;26.10;;;;;;;-0.52;100.00;99999.34;6322354;28;20085;-73
2022/01/28 01:04:56;;;;;;;55.58;26.42;;;;;;;-0.60;100.00;99983.25;6287636;28;20040;-73
2022/01/28 01:07:57;;;;;;;54.17;25.65;;;;;;;-0.63;100.00;99975.63;6322177;28;20043;-73
2022/01/28 01:10:58;;;;;;;61.40;24.92;;;;;;;-0.67;100.00;99979.94;6322092;28;20044;-73
2022/01/28 01:13:59;;;;;;;49.72;24.67;;;;;;;-0.63;100.00;99986.72;6322447;28;20039;-73
2022/01/28 01:23:34;;;;;;;46.08;23.17;;;;;;;-0.72;100.00;99984.31;6321768;28;20040;-69
2022/01/28 01:26:39;;;;;;;57.42;25.23;;;;;;;-0.68;100.00;99975.69;6288099;28;20040;-69
2022/01/28 01:29:43;;;;;;;64.13;23.60;;;;;;;-0.69;100.00;99963.75;6321593;28;20051;-73
2022/01/28 01:32:44;;;;;;;55.55;23.75;;;;;;;-0.63;100.00;99961.06;6303763;28;20040;-73
2022/01/28 01:35:45;;;;;;;49.45;23.63;;;;;;;-0.77;100.00;99949.38;6303792;28;20048;-72
2022/01/28 01:38:46;;;;;;;47.25;22.42;;;;;;;-0.67;100.00;99935.53;6303440;28;20070;-73
2022/01/28 01:41:55;;;;;;;51.53;23.00;;;;;;;-0.72;100.00;99950.13;6303395;28;20040;-69
2022/01/28 01:54:59;;;;;;;50.03;23.38;;;;;;;-0.63;100.00;99934.63;6306170;28;20064;-68
2022/01/28 01:58:00;;;;;;;42.00;21.77;;;;;;;-0.62;100.00;99934.59;6286668;28;20047;-73
2022/01/28 02:01:02;;;;;;;49.58;22.45;;;;;;;-0.63;100.00;99940.56;6303010;28;20119;-69
2022/01/28 02:04:03;;;;;;;45.65;21.20;;;;;;;-0.62;100.00;99947.41;6303218;28;20040;-68
2022/01/28 02:07:05;;;;;;;42.80;22.15;;;;;;;-0.56;100.00;99954.13;6303139;28;20047;-72
2022/01/28 02:10:06;;;;;;;49.55;23.30;;;;;;;-0.49;100.00;99939.50;6303125;28;20051;-73
2022/01/28 02:13:07;;;;;;;58.92;22.95;;;;;;;-0.40;100.00;99936.78;6286456;28;20044;-72
2022/01/28 02:16:09;;;;;;;54.67;22.73;;;;;;;-0.41;100.00;99933.38;6321073;28;20515;-72
2022/01/28 02:19:09;;;;;;;50.25;23.52;;;;;;;-0.31;100.00;99934.06;6321062;28;20140;-73
2022/01/28 02:22:10;;;;;;;54.17;22.33;;;;;;;-0.30;100.00;99929.75;6320800;28;20061;-73
2022/01/28 02:25:26;;;;;;;48.33;22.58;;;;;;;-0.19;100.00;99939.81;6286491;28;20083;-72
2022/01/28 02:28:31;;;;;;;48.03;22.27;;;;;;;-0.10;100.00;99934.53;6286371;28;20052;-72
2022/01/28 02:31:33;;;;;;;46.85;23.25;;;;;;;-0.14;100.00;99920.91;6286253;28;20056;-70
2022/01/28 02:34:35;;;;;;;51.28;22.58;;;;;;;-0.08;100.00;99912.25;6302736;28;20047;-70
2022/01/28 02:37:37;;;;;;;48.00;22.27;;;;;;;-0.10;100.00;99909.72;6320943;28;20051;-69
2022/01/28 02:40:40;;;;;;;50.90;23.00;;;;;;;-0.06;100.00;99900.25;6320499;28;20492;-73
2022/01/28 02:44:00;;;;;;;48.75;22.45;;;;;;;-0.13;100.00;99890.97;6320634;28;20044;-73
2022/01/28 02:47:03;;;;;;;42.45;20.90;;;;;;;-0.21;100.00;99888.53;6302352;28;20059;-72
2022/01/28 02:50:07;;;;;;;45.92;21.83;;;;;;;-0.22;100.00;99889.44;6303106;28;20100;-69
2022/01/28 02:53:19;;;;;;;44.97;22.02;;;;;;;-0.28;100.00;99875.00;6302921;28;20040;-69
2022/01/28 02:56:32;;;;;;;47.38;20.83;;;;;;;-0.37;100.00;99877.75;6287632;28;20047;-69
2022/01/28 02:59:33;;;;;;;47.03;21.70;;;;;;;-0.52;100.00;99883.16;6305022;28;20052;-69
2022/01/28 03:02:34;;;;;;;46.33;21.40;;;;;;;-0.51;100.00;99865.19;6307157;28;20051;-69
2022/01/28 03:05:35;;;;;;;48.08;20.25;;;;;;;-0.67;100.00;99874.03;6325076;28;20040;-69
2022/01/28 03:08:36;;;;;;;45.03;20.48;;;;;;;-0.91;100.00;99888.94;6274042;28;20089;-69
2022/01/28 03:18:09;;;;;;;42.67;21.27;;;;;;;-0.95;100.00;99894.97;6308672;28;20054;-69
2022/01/28 03:21:36;;;;;;;43.83;20.80;;;;;;;-1.14;100.00;99904.69;6324778;28;20249;-69
2022/01/28 03:24:38;;;;;;;42.05;19.77;;;;;;;-1.15;100.00;99900.44;6324696;28;20123;-72
2022/01/28 03:30:41;;;;;;;47.17;19.70;;;;;;;-1.28;100.00;99919.41;6324570;28;19924;-72
2022/01/28 03:33:42;;;;;;;47.33;21.35;;;;;;;-1.21;100.00;99918.47;6306447;28;20075;-72
2022/01/28 03:36:42;;;;;;;46.33;19.55;;;;;;;-1.19;100.00;99913.28;6324824;28;20059;-72
2022/01/28 03:39:43;;;;;;;34.83;16.83;;;;;;;-1.25;100.00;99929.63;6324355;28;20075;-72
2022/01/28 03:42:44;;;;;;;41.58;20.05;;;;;;;-1.05;100.00;99927.59;6289575;28;20036;-72
2022/01/28 03:45:45;;;;;;;46.45;20.20;;;;;;;-0.95;100.00;99920.59;6289175;28;20075;-72
2022/01/28 03:48:46;;;;;;;41.15;20.35;;;;;;;-0.87;100.00;99923.03;6324222;28;20550;-73
2022/01/28 03:51:46;;;;;;;38.88;19.60;;;;;;;-0.74;100.00;99924.56;6306011;28;20195;-72
2022/01/28 03:54:47;;;;;;;41.20;19.38;;;;;;;-0.66;100.00;99917.59;6306321;28;20062;-72
2022/01/28 03:57:48;;;;;;;50.92;21.17;;;;;;;-0.66;100.00;99904.75;6305957;28;20521;-72
2022/01/28 04:00:49;;;;;;;40.03;18.85;;;;;;;-0.62;100.00;99888.47;6323977;28;20483;-72
2022/01/28 04:04:23;;;;;;;36.90;17.05;;;;;;;-0.65;100.00;99883.38;6323785;28;20595;-72
2022/01/28 04:13:52;;;;;;;35.70;17.92;;;;;;;-0.62;100.00;99888.47;6294197;28;20036;-73
2022/01/28 04:20:12;;;;;;;42.47;17.23;;;;;;;-0.79;100.00;99895.59;6323508;28;20533;-73
2022/01/28 04:23:13;;;;;;;38.15;18.15;;;;;;;-0.73;100.00;99881.84;6288547;28;20126;-73
2022/01/28 04:26:14;;;;;;;38.78;17.48;;;;;;;-0.80;100.00;99870.84;6323364;28;20039;-72
2022/01/28 04:29:15;;;;;;;41.10;18.85;;;;;;;-0.88;100.00;99877.81;6305308;28;20040;-72
2022/01/28 04:32:18;;;;;;;35.78;18.38;;;;;;;-1.00;100.00;99893.41;6323523;28;20044;-73
2022/01/28 04:35:19;;;;;;;34.20;17.15;;;;;;;-1.09;100.00;99892.66;6305319;28;20098;-72
2022/01/28 04:38:37;;;;;;;34.15;16.58;;;;;;;-1.18;100.00;99925.25;6323079;28;20036;-72
2022/01/28 04:42:02;;;;;;;40.72;19.50;;;;;;;-1.23;100.00;99921.03;6322855;28;20127;-72
2022/01/28 04:45:14;;;;;;;37.17;17.70;;;;;;;-1.29;100.00;99935.66;6322441;28;20084;-73
2022/01/28 04:57:58;;;;;;;38.28;17.92;;;;;;;-0.99;100.00;99925.81;6322989;28;20040;-68
2022/01/28 05:27:07;;;;;;;40.38;17.58;;;;;;;-0.76;100.00;99913.47;6322057;28;20178;-68
2022/01/28 05:30:08;;;;;;;34.00;16.00;;;;;;;-0.86;100.00;99922.19;6304805;28;20072;-68
2022/01/28 05:33:09;;;;;;;36.23;17.23;;;;;;;-0.91;100.00;99914.56;6287308;28;20124;-67
2022/01/28 05:36:10;;;;;;;30.90;16.05;;;;;;;-1.02;100.00;99916.47;6303640;28;20044;-68
2022/01/28 05:39:11;;;;;;;33.25;16.50;;;;;;;-1.00;100.00;99919.84;6303667;28;20040;-68
2022/01/28 05:42:12;;;;;;;27.77;13.70;;;;;;;-1.03;100.00;99917.31;6321484;28;20044;-71
2022/01/28 05:45:13;;;;;;;37.58;15.80;;;;;;;-0.98;100.00;99914.69;6303266;28;20131;-72
2022/01/28 05:48:16;;;;;;;34.33;15.85;;;;;;;-0.93;100.00;99910.34;6321326;28;20040;-72
2022/01/28 05:51:18;;;;;;;;;;;;;;;-0.86;100.00;99904.25;6287568;28;20040;-72
2022/01/28 05:54:19;;;;;;;25.88;13.43;;;;;;;-0.89;100.00;99915.38;6321263;28;19920;-72
2022/01/28 05:57:19;;;;;;;22.35;12.20;;;;;;;-0.93;100.00;99918.03;6303230;28;20107;-72
2022/01/28 06:00:20;;;;;;;25.15;12.38;;;;;;;-0.96;100.00;99918.94;6321178;28;20183;-73
2022/01/28 06:03:21;;;;;;;24.60;11.60;;;;;;;-0.84;100.00;99912.75;6303122;28;20043;-69
2022/01/28 06:06:23;;;;;;;25.33;12.02;;;;;;;-0.72;100.00;99925.38;6321394;28;20036;-70
2022/01/28 06:09:24;;;;;;;25.80;12.45;;;;;;;-0.62;100.00;99923.47;6321166;28;20047;-69
2022/01/28 06:12:25;;;;;;;29.08;14.13;;;;;;;-0.51;100.00;99926.72;6321053;28;20077;-69
2022/01/28 06:15:26;;;;;;;27.95;14.35;;;;;;;-0.46;100.00;99927.47;6286202;28;20079;-69
2022/01/28 06:18:27;;;;;;;26.58;14.00;;;;;;;-0.30;100.00;99928.03;6321068;28;20044;-69
2022/01/28 06:21:28;;;;;;;18.98;10.55;;;;;;;-0.12;100.00;99933.72;6303293;28;20036;-69
2022/01/28 06:24:29;;;;;;;18.38;8.85;;;;;;;0.14;100.00;99928.88;6302919;28;20040;-69
2022/01/28 06:27:30;;;;;;;18.25;10.68;;;;;;;0.28;100.00;99931.16;6321352;28;20068;-69
2022/01/28 06:30:31;;;;;;;20.10;8.95;;;;;;;0.45;100.00;99923.09;6302809;28;20040;-69
2022/01/28 06:33:32;;;;;;;27.17;12.63;;;;;;;0.63;100.00;99932.13;6321634;28;20476;-69
2022/01/28 06:36:35;;;;;;;22.80;11.18;;;;;;;0.82;100.00;99929.16;6307736;28;20048;-69
2022/01/28 06:39:36;;;;;;;23.35;11.35;;;;;;;1.03;100.00;99930.38;6326027;28;20118;-69
2022/01/28 06:42:37;;;;;;;17.23;9.98;;;;;;;1.08;100.00;99928.56;6291117;28;20044;-68
2022/01/28 06:45:41;;;;;;;22.02;11.48;;;;;;;1.14;100.00;99921.53;6289788;28;20068;-69
2022/01/28 06:48:42;;;;;;;17.92;9.82;;;;;;;1.10;100.00;99921.66;6325342;28;20044;-68
2022/01/28 06:51:43;;;;;;;15.48;8.38;;;;;;;1.33;100.00;99927.06;6307548;28;20043;-72
2022/01/28 06:54:44;;;;;;;16.45;8.50;;;;;;;1.29;100.00;99935.72;6307340;28;20147;-73
2022/01/28 06:57:45;;;;;;;16.52;8.98;;;;;;;1.45;100.00;99922.50;6325215;28;20089;-72
2022/01/28 07:00:45;;;;;;;12.50;7.75;;;;;;;1.56;100.00;99934.19;6307214;28;20043;-72
2022/01/28 07:03:46;;;;;;;13.10;7.22;;;;;;;1.61;100.00;99926.38;6306943;28;20044;-72
2022/01/28 07:06:47;;;;;;;12.50;6.90;;;;;;;1.67;100.00;99923.63;6325021;28;20488;-73
2022/01/28 07:09:49;;;;;;;12.63;7.70;;;;;;;1.77;100.00;99931.94;6290356;28;20400;-72
2022/01/28 07:12:53;;;;;;;13.43;6.78;;;;;;;1.86;100.00;99936.84;6324958;28;20068;-72
2022/01/28 07:15:54;;;;;;;14.57;8.30;;;;;;;1.94;100.00;99916.88;6306597;28;20536;-73
2022/01/28 07:18:55;;;;;;;14.30;8.50;;;;;;;2.00;100.00;99923.59;6324885;28;20050;-73
2022/01/28 07:21:56;;;;;;;11.35;6.80;;;;;;;2.01;100.00;99927.84;6306666;28;20044;-73
2022/01/28 07:24:57;;;;;;;13.30;7.68;;;;;;;2.11;100.00;99933.59;6321284;28;20032;-74
2022/01/28 07:27:58;;;;;;;12.32;6.63;;;;;;;2.22;100.00;99940.13;6293923;28;20115;-74
2022/01/28 07:30:58;;;;;;;16.15;7.78;;;;;;;2.26;100.00;99933.13;6293025;28;20044;-74
2022/01/28 07:33:59;;;;;;;19.40;9.70;;;;;;;2.30;100.00;99929.59;6302191;28;20071;-74
2022/01/28 07:37:00;;;;;;;13.60;8.30;;;;;;;2.40;100.00;99936.16;6308789;28;20048;-75
2022/01/28 07:40:04;;;;;;;13.15;6.95;;;;;;;2.44;100.00;99942.06;6306711;28;20059;-74
2022/01/28 07:43:05;;;;;;;15.38;7.30;;;;;;;2.73;100.00;99941.19;6324472;28;20121;-75
2022/01/28 07:46:06;;;;;;;16.98;7.95;;;;;;;2.76;100.00;99946.28;6304745;28;20423;-75
2022/01/28 07:49:08;;;;;;;9.75;5.65;;;;;;;2.63;100.00;99942.38;6322825;28;20036;-75
2022/01/28 07:52:08;;;;;;;11.55;5.55;;;;;;;2.55;100.00;99934.03;6322888;28;20055;-72
2022/01/28 07:55:14;;;;;;;10.68;5.30;;;;;;;2.57;100.00;99945.13;6322554;28;20547;-72
2022/01/28 07:58:15;;;;;;;10.85;5.80;;;;;;;2.87;100.00;99935.63;6306431;28;20052;-72
2022/01/28 08:01:16;;;;;;;11.63;5.90;;;;;;;2.83;100.00;99926.31;6265669;28;20516;-75
2022/01/28 08:04:17;;;;;;;13.25;6.15;;;;;;;3.03;99.60;99925.69;6268448;28;20051;-75
2022/01/28 08:07:18;;;;;;;10.43;5.30;;;;;;;3.18;97.39;99929.50;6302755;28;20085;-75
2022/01/28 08:10:19;;;;;;;8.75;4.95;;;;;;;3.25;97.17;99938.69;6297448;28;20072;-75
2022/01/28 08:13:20;;;;;;;13.00;5.75;;;;;;;3.31;96.69;99933.34;6279565;28;20114;-76
2022/01/28 08:16:21;;;;;;;8.95;5.18;;;;;;;3.34;95.87;99938.41;6279226;28;20041;-75
2022/01/28 08:19:22;;;;;;;9.15;5.35;;;;;;;3.39;95.54;99941.66;6297141;28;20047;-75
2022/01/28 08:22:23;;;;;;;11.93;5.25;;;;;;;3.50;93.53;99941.34;6279414;28;20045;-75
2022/01/28 08:25:25;;;;;;;8.20;5.47;;;;;;;3.70;93.40;99939.78;6279091;28;20051;-75
2022/01/28 08:28:26;;;;;;;9.20;5.45;;;;;;;3.63;93.41;99940.00;6296882;28;20067;-76
2022/01/28 08:31:27;;;;;;;11.77;6.32;;;;;;;3.79;92.62;99948.06;6296924;28;20072;-76
2022/01/28 08:34:28;;;;;;;11.70;6.35;;;;;;;4.04;90.80;99942.88;6279059;28;20401;-76
2022/01/28 08:37:29;;;;;;;9.85;5.85;;;;;;;4.25;89.33;99940.41;6320532;28;20051;-76
2022/01/28 08:40:30;;;;;;;10.68;5.28;;;;;;;4.27;88.83;99954.13;6303874;28;20127;-76
2022/01/28 08:43:32;;;;;;;12.07;5.30;;;;;;;4.19;88.02;99944.06;6287150;28;20525;-75
2022/01/28 08:46:33;;;;;;;7.07;3.78;;;;;;;4.05;89.19;99943.72;6281828;28;1150896;-76
2022/01/28 08:49:34;;;;;;;8.30;4.60;;;;;;;4.33;87.63;99947.91;6281907;28;20119;-72
2022/01/28 08:52:35;;;;;;;8.40;5.07;;;;;;;4.50;85.71;99945.50;6282318;28;20489;-76
2022/01/28 08:55:38;;;;;;;8.10;4.10;;;;;;;4.36;86.51;99943.44;6302025;28;20041;-75
2022/01/28 08:58:38;;;;;;;7.13;4.15;;;;;;;4.75;84.41;99949.75;6279562;28;20045;-76
2022/01/28 09:01:39;;;;;;;13.88;4.53;;;;;;;4.71;85.56;99954.19;6306060;28;20086;-76
2022/01/28 09:04:40;;;;;;;6.47;3.30;;;;;;;4.90;83.65;99966.41;6293987;28;20047;-76
2022/01/28 09:07:41;;;;;;;5.18;3.08;;;;;;;4.83;82.59;99961.47;6310011;28;20048;-76
2022/01/28 09:10:45;;;;;;;9.57;4.10;;;;;;;5.19;83.13;99970.44;6287697;28;20044;-75
2022/01/28 09:13:46;;;;;;;8.68;4.40;;;;;;;5.38;79.63;99975.72;6313393;28;20048;-75
2022/01/28 09:16:47;;;;;;;10.70;4.85;;;;;;;5.32;77.84;99976.78;6313963;28;20077;-76
2022/01/28 09:19:49;;;;;;;8.95;4.40;;;;;;;5.36;78.48;99991.28;6296951;28;20072;-76
2022/01/28 09:22:50;;;;;;;5.78;3.70;;;;;;;5.45;78.49;99975.38;6279024;28;20119;-76
2022/01/28 09:25:51;;;;;;;10.43;4.45;;;;;;;5.82;78.67;99978.19;6262529;28;20052;-76
2022/01/28 09:28:52;;;;;;;6.60;4.13;;;;;;;6.06;78.42;99989.28;6278957;28;20040;-76
2022/01/28 09:31:53;;;;;;;15.35;5.00;;;;;;;6.10;77.00;99977.88;6264820;28;20059;-76
2022/01/28 09:34:53;;;;;;;6.85;3.80;;;;;;;5.95;76.88;99996.66;6300974;28;20076;-75
2022/01/28 09:37:54;;;;;;;7.07;4.10;;;;;;;5.97;77.61;99987.06;6262090;28;20045;-76
2022/01/28 09:40:56;;;;;;;5.82;3.10;;;;;;;6.10;76.70;99988.22;6296692;28;20041;-76
2022/01/28 09:44:00;;;;;;;6.32;3.53;;;;;;;6.28;75.59;99990.91;6296481;28;20050;-76
2022/01/28 09:47:01;;;;;;;4.60;2.88;;;;;;;6.39;73.55;99984.34;6296078;28;20056;-76
2022/01/28 09:50:06;;;;;;;6.25;2.58;;;;;;;6.21;74.69;99978.22;6261964;28;20253;-76
2022/01/28 09:53:08;;;;;;;6.68;2.60;;;;;;;6.20;74.32;99968.78;6296362;28;20090;-76
2022/01/28 09:56:08;;;;;;;4.35;2.67;;;;;;;5.98;74.19;99963.69;6278331;28;20040;-76
2022/01/28 09:59:09;;;;;;;4.47;2.67;;;;;;;6.41;74.35;99982.53;6278463;28;20044;-76
2022/01/28 10:02:10;;;;;;;5.63;2.30;;;;;;;6.28;75.33;99962.41;6296290;28;20045;-76
2022/01/28 10:05:48;;;;;;;3.42;2.00;;;;;;;6.51;73.45;99962.22;6296035;28;20048;-76
2022/01/28 10:08:53;;;;;;;4.07;2.28;;;;;;;6.75;70.72;99962.81;6262357;28;20056;-72
2022/01/28 10:12:19;;;;;;;3.75;1.50;;;;;;;6.41;70.88;99968.75;6278718;28;20068;-72
2022/01/28 10:15:29;;;;;;;3.30;2.25;;;;;;;6.67;70.57;99964.94;6295870;28;20074;-72
2022/01/28 10:18:48;;;;;;;2.72;1.92;;;;;;;6.84;70.19;99966.78;6295931;28;20067;-71
2022/01/28 10:21:49;;;;;;;5.32;2.85;;;;;;;6.87;71.48;99966.59;6296551;28;20051;-71
2022/01/28 10:24:49;;;;;;;3.35;1.90;;;;;;;6.93;71.43;99973.28;6278093;28;20044;-71
2022/01/28 10:28:02;;;;;;;3.05;1.83;;;;;;;6.92;69.68;99972.44;6277805;28;20041;-71
2022/01/28 10:31:03;;;;;;;;;;;;;;;7.15;68.66;99960.97;6296325;28;20047;-71
2022/01/28 10:34:33;;;;;;;6.18;2.60;;;;;;;7.25;66.97;99957.00;6277895;28;19947;-72
2022/01/28 10:37:33;;;;;;;4.40;1.65;;;;;;;7.30;67.94;99966.31;6292467;28;20551;-72
2022/01/28 10:40:34;;;;;;;2.88;1.65;;;;;;;7.23;65.79;99977.00;6277805;28;20037;-72
2022/01/28 10:43:56;;;;;;;2.50;1.55;;;;;;;7.34;65.77;99967.84;6295653;28;20037;-71
2022/01/28 10:47:00;;;;;;;2.63;1.67;;;;;;;7.35;65.88;99953.94;6256436;28;20049;-72
2022/01/28 10:50:34;;;;;;;2.83;1.45;;;;;;;7.63;64.55;99959.44;6236804;28;20052;-71
2022/01/28 10:53:35;;;;;;;1.42;0.98;;;;;;;7.32;61.85;99959.28;6252600;28;20139;-72
2022/01/28 10:56:55;;;;;;;2.30;1.30;;;;;;;8.19;62.49;99967.00;6277964;28;20546;-72
2022/01/28 10:59:56;;;;;;;3.80;1.25;;;;;;;7.51;61.74;99961.81;6276527;28;20072;-72
2022/01/28 11:03:02;;;;;;;2.00;1.30;;;;;;;7.83;62.59;99958.44;6277585;28;20473;-71
2022/01/28 11:06:05;;;;;;;1.95;1.00;;;;;;;8.32;60.70;99949.84;6261083;28;20044;-72
2022/01/28 11:09:11;;;;;;;2.05;1.30;;;;;;;8.14;60.94;99961.22;6277525;28;20386;-71
2022/01/28 11:12:13;;;;;;;1.60;1.00;;;;;;;7.87;60.92;99962.56;6282425;28;20451;-75
2022/01/28 11:15:14;;;;;;;2.17;1.20;;;;;;;8.08;61.11;99950.22;6288407;28;20045;-75
2022/01/28 11:18:16;;;;;;;2.67;1.00;;;;;;;8.18;61.51;99965.34;6236249;28;20049;-75
2022/01/28 11:21:23;;;;;;;1.75;0.80;;;;;;;7.95;58.96;99951.78;6273916;28;20041;-75
2022/01/28 11:25:01;;;;;;;0.98;0.80;;;;;;;8.03;59.98;99961.75;6274901;28;20505;-75
2022/01/28 11:28:13;;;;;;;1.80;1.27;;;;;;;7.92;58.97;99962.31;6274801;28;20041;-75
2022/01/28 11:31:15;;;;;;;3.90;1.27;;;;;;;8.02;62.23;99957.50;6273064;28;20126;-72
2022/01/28 11:34:26;;;;;;;1.00;0.90;;;;;;;7.70;59.85;99952.22;6286323;28;20393;-71
2022/01/28 11:37:30;;;;;;;1.30;0.73;;;;;;;7.69;60.10;99960.06;6274789;28;20037;-71
2022/01/28 11:40:49;;;;;;;1.85;0.77;;;;;;;7.54;60.70;99959.91;6274995;28;20116;-75
2022/01/28 11:43:55;;;;;;;1.73;0.80;;;;;;;7.42;61.93;99970.91;6274506;28;20041;-71
2022/01/28 11:47:00;;;;;;;2.35;0.80;;;;;;;7.15;62.93;99963.56;6295002;28;20057;-71
2022/01/28 11:50:17;;;;;;;2.03;1.00;;;;;;;7.24;62.22;99960.50;6276094;28;20044;-71
2022/01/28 11:53:24;;;;;;;1.15;0.93;;;;;;;7.14;62.23;99963.63;6285010;28;20044;-72
2022/01/28 11:56:25;;;;;;;1.20;0.77;;;;;;;6.96;61.53;99973.09;6305880;28;20044;-71
2022/01/28 11:59:28;;;;;;;2.97;0.90;;;;;;;7.17;61.91;99979.88;6307713;28;20068;-72
2022/01/28 12:02:46;;;;;;;1.15;0.60;;;;;;;7.18;61.72;99981.56;6298926;28;20037;-69
2022/01/28 12:05:47;;;;;;;1.38;0.80;;;;;;;7.22;61.74;99985.69;6298650;28;20123;-72
2022/01/28 12:08:48;;;;;;;0.57;0.57;;;;;;;7.15;62.72;99980.88;6280853;28;20490;-70
2022/01/28 12:11:48;;;;;;;0.98;0.70;;;;;;;6.99;63.74;99985.94;6280505;28;20989;-69
2022/01/28 12:14:50;;;;;;;2.83;1.60;;;;;;;7.00;61.76;99985.88;6280812;28;20047;-69
2022/01/28 12:18:02;;;;;;;1.20;0.93;;;;;;;7.04;60.44;99981.38;6298323;28;20048;-69
2022/01/28 12:21:12;;;;;;;1.95;0.70;;;;;;;6.85;59.49;99984.00;6265644;28;20045;-69
2022/01/28 12:24:19;;;;;;;0.85;0.75;;;;;;;6.97;58.67;99996.38;6280411;28;20437;-69
2022/01/28 12:27:21;;;;;;;0.95;0.40;;;;;;;7.04;57.07;99992.63;6280205;28;20510;-69
2022/01/28 12:30:33;;;;;;;2.25;0.70;;;;;;;6.86;58.13;99993.47;6309176;28;20036;-69
2022/01/28 12:33:38;;;;;;;0.95;0.57;;;;;;;6.90;59.62;99988.97;6297562;28;20087;-69
2022/01/28 12:36:39;;;;;;;0.77;0.70;;;;;;;6.98;59.67;99984.25;6263963;28;20060;-69
2022/01/28 12:39:50;;;;;;;1.73;1.00;;;;;;;7.01;58.63;99982.38;6291075;28;20040;-70
2022/01/28 12:42:54;;;;;;;1.80;1.10;;;;;;;6.86;57.56;99977.91;6287681;28;20492;-69
2022/01/28 12:46:07;;;;;;;1.63;1.20;;;;;;;6.74;59.43;99979.31;6279984;28;20044;-70
2022/01/28 12:49:09;;;;;;;13.48;5.10;;;;;;;6.90;58.51;99984.63;6297624;28;20124;-70
2022/01/28 12:52:10;;;;;;;9.23;3.60;;;;;;;6.69;57.38;99996.00;6272219;28;20064;-70
2022/01/28 12:55:12;;;;;;;5.55;2.75;;;;;;;6.71;58.35;99994.16;6279870;28;20162;-70
2022/01/28 12:58:14;;;;;;;6.30;2.10;;;;;;;6.61;57.59;99997.19;6297349;28;20489;-70
2022/01/28 13:01:18;;;;;;;9.97;4.87;;;;;;;6.47;57.69;100009.09;6279914;28;20047;-70
2022/01/28 13:04:22;;;;;;;22.50;11.82;;;;;;;6.33;58.33;100002.75;6297362;28;20308;-70
2022/01/28 13:10:31;;;;;;;54.25;25.13;;;;;;;6.12;57.98;100008.91;6297225;28;20045;-70
2022/01/28 13:13:31;;;;;;;43.47;21.52;;;;;;;6.19;58.07;100007.72;6279417;28;20525;-69
2022/01/28 13:16:36;;;;;;;5.70;3.90;;;;;;;6.27;58.96;100009.97;6297037;28;20427;-71
2022/01/28 13:19:37;;;;;;;6.40;2.70;;;;;;;6.23;59.50;100012.69;6297327;28;20384;-71
2022/01/28 13:22:39;;;;;;;5.53;2.40;;;;;;;6.43;58.90;100000.63;6279193;28;20123;-70
2022/01/28 13:25:41;;;;;;;3.72;1.70;;;;;;;6.58;59.02;100001.66;6297189;28;20044;-70
2022/01/28 13:28:42;;;;;;;2.33;1.27;;;;;;;6.45;60.42;100003.97;6278796;28;20048;-70
2022/01/28 13:31:43;;;;;;;2.63;1.30;;;;;;;6.62;59.70;100011.00;6262564;28;20519;-70
2022/01/28 13:34:50;;;;;;;5.20;1.60;;;;;;;6.45;62.07;100020.38;6278969;28;20068;-70
2022/01/28 13:37:55;;;;;;;5.82;1.70;;;;;;;6.35;61.49;100019.09;6296860;28;20048;-71
2022/01/28 13:40:56;;;;;;;2.05;1.20;;;;;;;6.42;62.31;100022.25;6278444;28;20060;-70
2022/01/28 13:44:00;;;;;;;7.72;1.58;;;;;;;6.24;61.40;100019.56;6247387;28;20063;-70
2022/01/28 13:47:02;;;;;;;2.55;1.52;;;;;;;6.23;60.63;100025.63;6287583;28;20436;-70
2022/01/28 13:50:03;;;;;;;2.55;1.48;;;;;;;6.00;60.69;100028.41;6295768;28;20051;-70
2022/01/28 13:56:24;;;;;;;3.28;0.80;;;;;;;5.85;61.19;100030.69;6312606;28;20193;-69
2022/01/28 13:59:30;;;;;;;2.13;1.40;;;;;;;5.72;61.91;100032.09;6261157;28;20055;-69
2022/01/28 14:02:39;;;;;;;2.08;1.13;;;;;;;5.63;63.39;100028.13;6277853;28;20098;-69
2022/01/28 14:06:01;;;;;;;2.63;1.13;;;;;;;5.53;62.92;100023.41;6295271;28;20484;-69
2022/01/28 14:09:12;;;;;;;3.22;1.42;;;;;;;5.57;62.98;100027.56;6260796;28;20041;-69
2022/01/28 14:12:34;;;;;;;9.20;2.05;;;;;;;5.52;63.09;100030.34;6295263;28;20386;-69
2022/01/28 14:15:49;;;;;;;13.45;8.40;;;;;;;5.47;64.05;100032.25;6296042;28;20041;-69
2022/01/28 14:18:49;;;;;;;57.65;24.70;;;;;;;5.43;64.80;100041.88;6277804;28;20043;-68
2022/01/28 14:21:51;;;;;;;150.23;51.35;;;;;;;5.45;64.57;100047.84;6261547;28;20473;-69
2022/01/28 14:24:52;;;;;;;51.05;18.38;;;;;;;5.44;64.55;100043.56;6295752;28;20040;-69
2022/01/28 14:31:08;;;;;;;7.18;3.08;;;;;;;5.31;65.31;100049.28;6278733;28;20033;-69
2022/01/28 14:34:09;;;;;;;3.75;2.10;;;;;;;5.21;65.03;100052.25;6279097;28;20040;-69
2022/01/28 14:37:11;;;;;;;6.82;4.35;;;;;;;5.16;66.40;100053.31;6261228;28;20477;-69
2022/01/28 14:40:13;;;;;;;2.70;1.93;;;;;;;4.96;67.97;100051.50;6277809;28;20508;-69
2022/01/28 14:43:14;;;;;;;2.65;1.75;;;;;;;4.85;68.16;100057.91;6277820;28;20041;-69
2022/01/28 14:46:16;;;;;;;2.50;1.20;;;;;;;4.81;68.79;100055.50;6295456;28;20131;-69
2022/01/28 14:49:17;;;;;;;7.50;4.55;;;;;;;4.79;69.36;100058.13;6261128;28;20044;-69
2022/01/28 14:52:19;;;;;;;2.35;1.30;;;;;;;4.76;68.99;100057.44;6261284;28;20049;-69
2022/01/28 14:55:20;;;;;;;3.15;1.10;;;;;;;4.83;68.77;100061.47;6297851;28;20040;-69
2022/01/28 14:58:21;;;;;;;2.40;1.30;;;;;;;4.82;69.37;100073.53;6300538;28;20091;-69
2022/01/28 15:01:22;;;;;;;1.60;1.20;;;;;;;4.80;69.60;100072.75;6265755;28;20492;-70
2022/01/28 15:04:22;;;;;;;3.15;1.30;;;;;;;4.77;69.73;100072.03;6282388;28;20128;-70
2022/01/28 15:07:27;;;;;;;1.27;0.88;;;;;;;4.69;68.95;100080.06;6299935;28;20408;-69
2022/01/28 15:10:29;;;;;;;7.25;1.05;;;;;;;4.59;69.48;100076.97;6265975;28;20051;-69
2022/01/28 15:13:30;;;;;;;2.78;1.30;;;;;;;4.67;69.22;100081.84;6266008;28;20087;-69
2022/01/28 15:16:31;;;;;;;4.13;1.60;;;;;;;4.58;69.11;100082.19;6249295;28;20050;-69
2022/01/28 15:19:32;;;;;;;4.18;2.17;;;;;;;4.51;69.89;100076.41;6299545;28;20102;-69
2022/01/28 15:22:33;;;;;;;6.20;2.53;;;;;;;4.48;70.11;100081.66;6282016;28;20123;-70
2022/01/28 15:25:34;;;;;;;6.10;2.17;;;;;;;4.44;70.16;100098.19;6299555;28;20163;-68
2022/01/28 15:28:49;;;;;;;8.32;2.30;;;;;;;4.39;70.69;100089.75;6299502;28;20495;-69
2022/01/28 15:35:41;;;;;;;4.05;2.13;;;;;;;4.13;72.48;100099.22;6299302;28;20044;-72
2022/01/28 15:38:37;;;;;;;6.57;2.13;;;;;;;3.99;72.93;100104.00;6299134;28;20040;-72
2022/01/28 15:41:39;;;;;;;6.47;2.80;;;;;;;3.97;73.68;100108.38;6281417;28;20037;-72
2022/01/28 15:44:41;;;;;;;5.80;2.88;;;;;;;3.99;73.11;100104.84;6298937;28;20045;-72
2022/01/28 15:47:42;;;;;;;5.10;3.30;;;;;;;3.85;74.42;100119.97;6299277;28;20052;-72
2022/01/28 15:50:47;;;;;;;4.65;2.15;;;;;;;3.87;73.63;100115.59;6281134;28;20047;-69
2022/01/28 15:53:48;;;;;;;4.32;2.30;;;;;;;4.10;72.25;100119.13;6298993;28;20044;-69
2022/01/28 15:56:49;;;;;;;4.90;2.45;;;;;;;4.03;71.93;100129.66;6298785;28;20052;-68
2022/01/28 15:59:50;;;;;;;5.73;2.07;;;;;;;3.95;72.18;100128.22;6280993;28;20072;-68
2022/01/28 16:02:51;;;;;;;5.90;2.40;;;;;;;3.99;72.89;100132.41;6280991;28;20041;-68